Time;durP1;ratioP1;P1;durP2;ratioP2;P2;SDS_P1;SDS_P2;PMS_P1;PMS_P2;Temp;Humidity;BMP_temperature;BMP_pressure;BME280_temperature;BME280_humidity;BME280_pressure;Samples;Min_cycle;Max_cycle;Signal;HPM_P1;HPM_P2
2021/10/06 00:01:49;;;;;;;4.75;3.55;;;;;;;9.46;49.30;102324.06;5048534;28;20028;-49
2021/10/06 00:04:15;;;;;;;6.10;3.60;;;;;;;9.43;49.39;102309.97;5050658;28;20036;-51
2021/10/06 00:06:40;;;;;;;7.45;3.80;;;;;;;9.36;49.82;102301.28;5049747;28;20058;-54
2021/10/06 00:09:06;;;;;;;7.50;3.78;;;;;;;9.46;49.38;102323.22;5050324;28;20198;-56
2021/10/06 00:11:32;;;;;;;6.05;3.90;;;;;;;9.45;49.23;102322.34;5050655;28;20044;-56
2021/10/06 00:13:58;;;;;;;6.45;3.42;;;;;;;9.40;49.73;102321.63;5050179;28;20034;-52
2021/10/06 00:16:23;;;;;;;5.18;3.97;;;;;;;9.39;49.88;102321.66;5050091;28;20127;-53
2021/10/06 00:18:49;;;;;;;7.88;3.45;;;;;;;9.34;49.89;102312.03;5049211;28;20040;-53
2021/10/06 00:21:14;;;;;;;7.88;4.07;;;;;;;9.31;50.12;102319.28;5043346;28;20029;-58
2021/10/06 00:23:40;;;;;;;4.57;3.75;;;;;;;9.34;50.01;102320.03;5044797;28;20067;-55
2021/10/06 00:26:06;;;;;;;6.90;4.00;;;;;;;9.32;49.89;102324.56;5042358;28;20120;-52
2021/10/06 00:28:32;;;;;;;7.13;3.72;;;;;;;9.32;50.04;102316.56;5045560;28;20033;-56
2021/10/06 00:30:58;;;;;;;6.50;3.80;;;;;;;9.33;49.92;102328.13;5048150;28;20041;-54
2021/10/06 00:33:25;;;;;;;6.00;3.90;;;;;;;9.32;49.82;102324.56;5043667;28;20480;-57
2021/10/06 00:35:51;;;;;;;4.45;3.55;;;;;;;9.35;49.66;102326.28;5035554;28;20396;-55
2021/10/06 00:38:17;;;;;;;8.10;3.67;;;;;;;9.35;49.53;102326.28;5050528;28;20131;-53
2021/10/06 00:40:42;;;;;;;5.85;4.50;;;;;;;9.33;49.89;102326.31;5052971;28;20108;-53
2021/10/06 00:43:08;;;;;;;11.75;3.90;;;;;;;9.30;50.11;102334.44;5053524;28;20044;-57
2021/10/06 00:45:33;;;;;;;5.82;3.25;;;;;;;9.16;49.53;102288.59;5053374;28;20032;-52
2021/10/06 00:47:59;;;;;;;5.35;4.10;;;;;;;9.33;49.88;102318.28;5049395;28;20096;-55
2021/10/06 00:50:24;;;;;;;4.53;3.58;;;;;;;9.17;49.81;102293.91;5050735;28;20020;-54
2021/10/06 00:52:49;;;;;;;7.97;4.00;;;;;;;9.32;49.97;102321.91;5048230;28;20217;-56
2021/10/06 00:55:16;;;;;;;6.28;3.90;;;;;;;9.31;49.76;102330.84;5046802;28;20522;-57
2021/10/06 00:57:42;;;;;;;7.10;4.10;;;;;;;9.32;49.91;102329.06;5041179;28;20033;-54
2021/10/06 01:00:09;;;;;;;7.50;4.32;;;;;;;9.29;49.79;102326.50;5054180;28;20033;-56
2021/10/06 01:02:35;;;;;;;6.18;3.75;;;;;;;9.33;49.81;102326.31;5051296;28;20025;-57
2021/10/06 01:05:01;;;;;;;9.07;4.00;;;;;;;9.36;49.64;102321.78;5050869;28;20083;-55
2021/10/06 01:07:27;;;;;;;7.13;4.10;;;;;;;9.15;49.84;102300.22;5046567;28;20427;-55
2021/10/06 01:09:53;;;;;;;10.85;4.32;;;;;;;9.23;49.60;102326.69;5053884;28;20060;-55
2021/10/06 01:12:19;;;;;;;7.03;3.97;;;;;;;9.02;49.68;102286.41;5035401;28;20041;-53
2021/10/06 01:14:47;;;;;;;6.53;3.83;;;;;;;9.19;49.68;102329.47;5040498;28;20030;-52
2021/10/06 01:17:14;;;;;;;8.15;4.03;;;;;;;9.18;49.69;102316.19;5048423;28;20365;-53
2021/10/06 01:19:40;;;;;;;8.55;4.50;;;;;;;9.04;50.04;102313.97;5047030;28;20036;-56
2021/10/06 01:22:06;;;;;;;10.60;4.18;;;;;;;9.17;50.43;102336.69;5046578;28;20111;-55
2021/10/06 01:24:31;;;;;;;8.27;4.22;;;;;;;9.18;49.81;102349.13;5042814;28;20107;-54
2021/10/06 01:26:58;;;;;;;6.95;3.90;;;;;;;9.15;50.08;102340.31;5038680;28;20131;-54
2021/10/06 01:29:24;;;;;;;5.60;4.25;;;;;;;9.13;50.08;102332.38;5042603;28;20037;-56
2021/10/06 01:31:50;;;;;;;6.13;3.88;;;;;;;9.13;50.27;102336.81;5034495;28;20153;-55
2021/10/06 01:34:19;;;;;;;8.52;4.28;;;;;;;9.18;50.23;102346.44;5033960;28;20044;-57
2021/10/06 01:36:48;;;;;;;6.05;4.38;;;;;;;9.25;50.13;102355.13;5033205;28;20493;-55
2021/10/06 01:39:14;;;;;;;5.93;4.28;;;;;;;9.20;50.25;102338.38;5032403;28;20036;-56
2021/10/06 01:41:40;;;;;;;7.40;4.45;;;;;;;9.03;50.46;102318.44;5032286;28;20104;-53
2021/10/06 01:44:10;;;;;;;10.23;4.38;;;;;;;9.19;50.38;102339.31;5032615;28;20029;-53
2021/10/06 01:46:36;;;;;;;6.03;4.03;;;;;;;9.22;50.02;102336.53;5032769;28;20033;-56
2021/10/06 01:49:01;;;;;;;8.13;4.03;;;;;;;9.26;50.29;102350.63;5032920;28;20131;-55
2021/10/06 01:51:27;;;;;;;8.05;4.45;;;;;;;9.23;50.13;102342.72;5040232;28;20099;-53
2021/10/06 01:53:52;;;;;;;10.27;4.45;;;;;;;9.25;50.09;102346.22;5031512;28;20030;-54
2021/10/06 01:56:18;;;;;;;5.68;4.13;;;;;;;9.22;50.27;102344.53;5039831;28;20098;-53
2021/10/06 01:58:47;;;;;;;14.25;4.05;;;;;;;9.08;50.45;102312.06;5044386;28;20033;-53
2021/10/06 02:01:13;;;;;;;7.57;4.57;;;;;;;9.04;50.36;102314.84;5045117;28;20473;-54
2021/10/06 02:03:38;;;;;;;6.40;4.13;;;;;;;9.20;50.47;102343.72;5039202;28;21637;-53
2021/10/06 02:06:04;;;;;;;7.25;4.45;;;;;;;9.24;50.32;102355.16;5037192;28;20064;-55
2021/10/06 02:08:29;;;;;;;7.22;4.20;;;;;;;9.18;50.41;102356.28;5032157;28;20055;-55
2021/10/06 02:10:55;;;;;;;11.82;5.03;;;;;;;9.20;50.60;102359.78;5042342;28;20045;-53
2021/10/06 02:13:21;;;;;;;6.20;4.00;;;;;;;9.18;51.19;102356.28;5050432;28;20109;-53
2021/10/06 02:15:47;;;;;;;7.72;4.28;;;;;;;9.22;50.69;102362.38;5049173;28;20025;-54
2021/10/06 02:18:13;;;;;;;8.35;4.50;;;;;;;9.20;50.69;102359.78;5039611;28;20436;-53
2021/10/06 02:20:38;;;;;;;10.23;4.68;;;;;;;9.17;51.11;102367.91;5035649;28;20036;-52
2021/10/06 02:23:04;;;;;;;7.57;4.28;;;;;;;9.15;51.20;102377.72;5051142;28;20037;-55
2021/10/06 02:25:30;;;;;;;7.60;4.43;;;;;;;9.14;51.10;102370.66;5050209;28;20021;-57
2021/10/06 02:27:55;;;;;;;8.90;4.63;;;;;;;9.13;51.36;102379.59;5048937;28;20128;-58
2021/10/06 02:30:21;;;;;;;8.80;4.90;;;;;;;9.15;51.41;102377.72;5045372;28;20190;-54
2021/10/06 02:32:46;;;;;;;7.78;4.60;;;;;;;9.17;51.57;102366.06;5032668;28;20025;-54
2021/10/06 02:35:12;;;;;;;6.88;4.82;;;;;;;9.08;51.74;102370.84;5032462;28;20235;-54
2021/10/06 02:37:39;;;;;;;7.82;4.95;;;;;;;9.04;52.06;102376.31;5031938;28;20032;-55
2021/10/06 02:40:08;;;;;;;9.38;5.00;;;;;;;9.04;51.72;102384.31;5040720;28;20033;-56
2021/10/06 02:42:34;;;;;;;6.68;4.88;;;;;;;9.00;52.03;102368.44;5038984;28;20049;-55
2021/10/06 02:45:00;;;;;;;6.95;4.97;;;;;;;9.04;52.24;102378.09;5032185;28;20048;-55
2021/10/06 02:47:25;;;;;;;9.02;5.18;;;;;;;9.02;51.75;102367.47;5030742;28;20029;-55
2021/10/06 02:49:51;;;;;;;7.93;5.10;;;;;;;9.07;51.34;102374.47;5030142;28;20026;-55
2021/10/06 02:52:16;;;;;;;8.10;4.82;;;;;;;8.77;51.99;102348.69;5032146;28;20029;-52
2021/10/06 02:54:42;;;;;;;7.20;4.63;;;;;;;8.90;52.32;102379.44;5030942;28;20050;-51
2021/10/06 02:57:07;;;;;;;11.40;5.03;;;;;;;8.91;51.90;102385.63;5044644;28;20029;-53
2021/10/06 02:59:33;;;;;;;11.48;5.18;;;;;;;8.90;51.82;102386.56;5045748;28;20051;-52
2021/10/06 03:01:59;;;;;;;8.85;5.00;;;;;;;8.88;52.12;102391.97;5043106;28;20437;-55
2021/10/06 03:04:25;;;;;;;8.68;4.68;;;;;;;8.88;52.53;102399.09;5034117;28;20371;-55
2021/10/06 03:06:51;;;;;;;7.78;5.13;;;;;;;8.89;52.18;102395.50;5036182;28;20029;-54
2021/10/06 03:09:16;;;;;;;11.23;4.82;;;;;;;8.87;52.34;102394.69;5031296;28;20042;-55
2021/10/06 03:11:42;;;;;;;9.20;5.13;;;;;;;8.86;52.38;102398.28;5030972;28;20037;-56
2021/10/06 03:14:08;;;;;;;8.30;4.57;;;;;;;8.73;52.19;102371.97;5029303;28;20444;-50
2021/10/06 03:16:34;;;;;;;6.57;5.20;;;;;;;8.81;52.52;102392.22;5029442;28;20067;-55
2021/10/06 03:18:59;;;;;;;11.43;5.15;;;;;;;8.83;52.56;102393.94;5030726;28;20029;-52
2021/10/06 03:21:25;;;;;;;13.60;5.45;;;;;;;8.84;52.68;102405.47;5031284;28;20025;-54
2021/10/06 03:23:50;;;;;;;6.95;5.10;;;;;;;8.59;52.51;102360.84;5029800;28;20029;-54
2021/10/06 03:26:16;;;;;;;7.88;5.20;;;;;;;8.78;52.45;102395.84;5033959;28;20029;-53
2021/10/06 03:28:41;;;;;;;10.95;5.25;;;;;;;8.72;52.90;102391.59;5050467;28;20037;-56
2021/10/06 03:31:07;;;;;;;9.45;5.10;;;;;;;8.75;52.67;102396.84;5044994;28;20025;-53
2021/10/06 03:33:33;;;;;;;10.68;5.00;;;;;;;8.69;53.02;102399.72;5050766;28;20056;-52
2021/10/06 03:35:58;;;;;;;8.43;4.97;;;;;;;8.74;52.87;102408.44;5051384;28;20521;-55
2021/10/06 03:38:24;;;;;;;10.77;4.95;;;;;;;8.70;52.58;102396.13;5050835;28;20024;-51
2021/10/06 03:40:49;;;;;;;7.63;4.88;;;;;;;8.70;52.98;102404.13;5050765;28;20025;-53
2021/10/06 03:43:15;;;;;;;10.25;5.57;;;;;;;8.67;53.17;102404.19;5045657;28;20025;-52
2021/10/06 03:45:40;;;;;;;10.40;5.25;;;;;;;8.56;52.96;102380.53;5034031;28;20059;-57
2021/10/06 03:48:06;;;;;;;9.95;5.50;;;;;;;8.69;52.80;102404.16;5029997;28;20059;-55
2021/10/06 03:50:31;;;;;;;8.80;5.55;;;;;;;8.61;52.82;102407.94;5034819;28;20424;-53
2021/10/06 03:52:57;;;;;;;9.73;5.25;;;;;;;8.60;53.04;102398.19;5030353;28;20032;-52
2021/10/06 03:55:23;;;;;;;9.32;5.20;;;;;;;8.60;53.15;102400.88;5047578;28;20052;-50
2021/10/06 03:57:48;;;;;;;9.93;5.30;;;;;;;8.60;53.12;102402.66;5048304;28;20419;-55
2021/10/06 04:00:14;;;;;;;10.55;6.18;;;;;;;8.57;53.61;102400.06;5043299;28;20033;-50
2021/10/06 04:02:40;;;;;;;9.50;5.15;;;;;;;8.61;53.38;102409.75;5037336;28;20029;-50
2021/10/06 04:05:07;;;;;;;12.02;6.25;;;;;;;8.62;53.16;102408.81;5030149;28;20041;-51
2021/10/06 04:07:34;;;;;;;10.13;5.55;;;;;;;8.58;53.31;102409.84;5034560;28;20557;-52
2021/10/06 04:09:59;;;;;;;8.63;4.90;;;;;;;8.61;53.48;102407.06;5034923;28;20037;-49
2021/10/06 04:12:25;;;;;;;13.35;5.97;;;;;;;8.47;53.32;102392.31;5042901;28;20060;-54
2021/10/06 04:14:50;;;;;;;7.28;5.28;;;;;;;8.69;53.21;102417.50;5042869;28;21445;-53
2021/10/06 04:17:16;;;;;;;10.40;5.50;;;;;;;8.72;53.09;102423.66;5045387;28;20070;-52
2021/10/06 04:19:41;;;;;;;9.85;5.95;;;;;;;8.76;53.13;102429.75;5031552;28;20033;-53
2021/10/06 04:22:07;;;;;;;9.93;6.28;;;;;;;8.81;52.91;102421.59;5030346;28;20032;-53
2021/10/06 04:24:32;;;;;;;12.18;6.70;;;;;;;8.80;52.71;102420.75;5030066;28;20041;-54
2021/10/06 04:26:58;;;;;;;8.40;6.10;;;;;;;8.85;52.56;102423.25;5034409;28;20060;-50
2021/10/06 04:29:23;;;;;;;9.60;5.63;;;;;;;8.86;52.84;102420.53;5031304;28;20032;-54
2021/10/06 04:31:49;;;;;;;12.40;6.82;;;;;;;8.89;52.75;102424.88;5030472;28;20040;-54
2021/10/06 04:34:14;;;;;;;10.68;6.15;;;;;;;8.95;52.65;102430.06;5030067;28;20497;-55
2021/10/06 04:36:41;;;;;;;12.40;6.53;;;;;;;9.07;52.29;102438.59;5029816;28;20477;-51
2021/10/06 04:39:08;;;;;;;11.63;6.65;;;;;;;9.01;52.13;102429.88;5030219;28;20362;-57
2021/10/06 04:41:33;;;;;;;11.70;6.75;;;;;;;9.06;52.25;102427.03;5030718;28;20044;-55
2021/10/06 04:44:01;;;;;;;11.45;6.72;;;;;;;9.08;52.18;102435.88;5029884;28;20029;-51
2021/10/06 04:46:27;;;;;;;13.73;7.18;;;;;;;9.17;51.88;102429.38;5027943;28;20037;-55
2021/10/06 04:48:53;;;;;;;12.18;6.90;;;;;;;9.17;52.22;102440.91;5028597;28;20029;-54
2021/10/06 04:51:18;;;;;;;17.55;7.25;;;;;;;9.23;51.99;102433.63;5029940;28;20026;-51
2021/10/06 04:53:44;;;;;;;12.10;6.93;;;;;;;9.32;51.68;102434.19;5032489;28;20028;-55
2021/10/06 04:56:09;;;;;;;10.95;6.82;;;;;;;9.44;51.33;102426.69;5035906;28;20188;-50
2021/10/06 04:58:35;;;;;;;12.50;7.13;;;;;;;9.52;50.59;102446.00;5043315;28;20112;-51
2021/10/06 05:01:00;;;;;;;13.00;7.38;;;;;;;9.57;50.77;102438.69;5046665;28;20051;-55
2021/10/06 05:03:26;;;;;;;13.25;6.90;;;;;;;9.68;50.22;102437.47;5045129;28;20492;-57
2021/10/06 05:05:51;;;;;;;16.88;7.53;;;;;;;9.75;49.70;102447.03;5029396;28;20041;-52
2021/10/06 05:08:17;;;;;;;15.60;7.10;;;;;;;9.66;50.33;102442.00;5029131;28;20482;-54
2021/10/06 05:10:42;;;;;;;13.05;8.02;;;;;;;9.82;49.55;102453.91;5028442;28;20053;-52
2021/10/06 05:13:08;;;;;;;16.15;7.07;;;;;;;9.86;49.35;102452.84;5028833;28;20096;-54
2021/10/06 05:15:33;;;;;;;14.80;6.93;;;;;;;9.97;49.10;102440.91;5028842;28;20027;-51
2021/10/06 05:17:59;;;;;;;13.27;6.47;;;;;;;10.26;48.51;102447.88;5029024;28;20033;-52
2021/10/06 05:20:25;;;;;;;11.68;6.78;;;;;;;10.50;47.80;102465.78;5028912;28;20037;-53
2021/10/06 05:22:50;;;;;;;13.45;7.15;;;;;;;10.73;47.18;102451.50;5029158;28;20065;-55
2021/10/06 05:25:16;;;;;;;10.10;6.70;;;;;;;11.19;46.12;102464.88;5030994;28;20092;-55
2021/10/06 05:27:41;;;;;;;14.32;6.90;;;;;;;12.05;43.79;102454.09;5032139;28;20034;-53
2021/10/06 05:30:08;;;;;;;12.38;6.93;;;;;;;12.43;42.64;102456.84;5033016;28;20026;-51
2021/10/06 05:32:35;;;;;;;13.20;6.75;;;;;;;13.57;40.74;102452.31;5033346;28;20120;-52
2021/10/06 05:35:01;;;;;;;15.77;7.38;;;;;;;15.27;36.80;102452.09;5033439;28;20034;-52
2021/10/06 05:37:27;;;;;;;13.15;6.43;;;;;;;18.36;31.67;102455.72;5033084;28;20104;-52
2021/10/06 05:39:53;;;;;;;8.05;6.03;;;;;;;21.28;26.99;102444.06;5033797;28;20041;-50
2021/10/06 05:42:19;;;;;;;12.95;6.32;;;;;;;24.13;23.11;102454.94;5032765;28;20044;-50
2021/10/06 05:44:44;;;;;;;12.57;6.20;;;;;;;26.14;20.32;102449.34;5032357;28;20057;-53
2021/10/06 05:47:10;;;;;;;18.00;7.35;;;;;;;27.25;18.34;102457.66;5032802;28;20037;-52
2021/10/06 05:49:35;;;;;;;14.13;6.80;;;;;;;28.19;17.89;102459.97;5033523;28;20044;-52
2021/10/06 05:52:01;;;;;;;10.85;7.28;;;;;;;29.02;16.26;102459.59;5047282;28;20033;-52
2021/10/06 05:54:26;;;;;;;14.48;7.03;;;;;;;29.64;15.93;102460.47;5052641;28;20480;-51
2021/10/06 05:56:52;;;;;;;13.98;7.00;;;;;;;30.42;14.83;102462.09;5052293;28;20033;-55
2021/10/06 05:59:17;;;;;;;12.52;6.75;;;;;;;31.31;14.46;102462.88;5032548;28;20039;-52
2021/10/06 06:01:43;;;;;;;12.75;6.65;;;;;;;32.34;13.37;102455.97;5046610;28;20029;-59
2021/10/06 06:04:08;;;;;;;12.82;6.82;;;;;;;32.95;12.70;102434.00;5052452;28;20107;-56
2021/10/06 06:06:33;;;;;;;9.68;6.35;;;;;;;33.42;12.00;102459.06;5052845;28;20108;-52
2021/10/06 06:08:59;;;;;;;11.85;6.70;;;;;;;33.69;11.75;102458.19;5051670;28;20055;-52
2021/10/06 06:11:27;;;;;;;10.07;6.32;;;;;;;34.20;11.22;102462.16;5051212;28;20037;-55
2021/10/06 06:13:53;;;;;;;12.05;6.65;;;;;;;34.42;11.03;102443.25;5043733;28;20025;-58
2021/10/06 06:16:19;;;;;;;13.15;7.07;;;;;;;34.67;10.55;102445.28;5041841;28;20435;-56
2021/10/06 06:18:44;;;;;;;13.07;7.03;;;;;;;34.76;10.41;102452.31;5041807;28;20373;-55
2021/10/06 06:21:10;;;;;;;14.32;6.70;;;;;;;34.76;10.57;102460.66;5043047;28;20528;-58
2021/10/06 06:23:36;;;;;;;15.38;6.40;;;;;;;34.83;10.29;102460.59;5041796;28;20033;-58
2021/10/06 06:26:02;;;;;;;12.60;6.45;;;;;;;35.00;10.16;102469.31;5041182;28;20408;-56
2021/10/06 06:28:29;;;;;;;12.10;6.30;;;;;;;34.97;10.01;102461.38;5042450;28;20024;-58
2021/10/06 06:30:55;;;;;;;14.52;6.70;;;;;;;35.33;9.96;102465.41;5040853;28;20033;-58
2021/10/06 06:33:21;;;;;;;7.68;5.88;;;;;;;35.48;9.55;102450.28;5042428;28;20303;-56
2021/10/06 06:35:46;;;;;;;8.65;5.72;;;;;;;35.60;8.95;102467.97;5040963;28;20048;-56
2021/10/06 06:38:12;;;;;;;10.32;6.40;;;;;;;35.75;8.92;102473.19;5038825;28;20102;-58
2021/10/06 06:40:41;;;;;;;9.98;6.40;;;;;;;36.00;8.94;102485.38;5034582;28;20084;-55
2021/10/06 06:43:10;;;;;;;8.52;5.47;;;;;;;36.82;8.94;102483.34;5039532;28;20021;-58
2021/10/06 06:45:36;;;;;;;10.23;6.05;;;;;;;36.57;8.25;102473.16;5030525;28;20030;-58
2021/10/06 06:48:03;;;;;;;11.52;5.72;;;;;;;36.64;8.27;102482.28;5031148;28;20476;-54
2021/10/06 06:50:29;;;;;;;8.60;5.80;;;;;;;36.65;8.60;102467.25;5030871;28;20164;-57
2021/10/06 06:52:54;;;;;;;10.55;6.07;;;;;;;36.78;8.14;102464.28;5032302;28;20112;-56
2021/10/06 06:55:20;;;;;;;10.20;6.22;;;;;;;36.85;8.05;102464.19;5049632;28;20164;-57
2021/10/06 06:57:46;;;;;;;12.57;6.90;;;;;;;36.61;8.50;102482.75;5043454;28;20091;-59
2021/10/06 07:00:13;;;;;;;8.48;6.28;;;;;;;36.53;8.39;102472.78;5030835;28;20500;-56
2021/10/06 07:02:38;;;;;;;9.07;6.28;;;;;;;36.86;8.36;102462.22;5037060;28;20029;-57
2021/10/06 07:05:04;;;;;;;9.63;6.13;;;;;;;37.20;8.13;102474.59;5036616;28;20045;-53
2021/10/06 07:07:30;;;;;;;11.57;6.32;;;;;;;37.55;7.49;102478.56;5031028;28;20389;-55
2021/10/06 07:09:55;;;;;;;7.95;5.45;;;;;;;37.53;7.49;102471.53;5030720;28;20068;-57
2021/10/06 07:12:21;;;;;;;9.27;6.00;;;;;;;37.05;7.71;102475.06;5031988;28;20519;-56
2021/10/06 07:14:48;;;;;;;10.90;5.90;;;;;;;36.98;7.83;102473.44;5030994;28;20477;-58
2021/10/06 07:17:13;;;;;;;10.98;6.57;;;;;;;37.15;8.03;102474.47;5030942;28;20033;-54
2021/10/06 07:19:40;;;;;;;10.02;5.75;;;;;;;37.31;7.63;102472.94;5031968;28;20026;-58
2021/10/06 07:22:06;;;;;;;7.47;5.25;;;;;;;37.19;7.67;102486.03;5029238;28;20452;-58
2021/10/06 07:24:32;;;;;;;11.15;6.05;;;;;;;37.07;8.16;102466.47;5030054;28;20026;-58
2021/10/06 07:26:58;;;;;;;11.07;5.85;;;;;;;36.85;7.65;102471.69;5040940;28;20052;-59
2021/10/06 07:29:23;;;;;;;9.68;5.40;;;;;;;36.15;8.29;102471.94;5050610;28;20068;-59
2021/10/06 07:31:49;;;;;;;10.85;5.32;;;;;;;35.59;8.30;102474.63;5051532;28;20083;-56
2021/10/06 07:34:15;;;;;;;8.68;5.05;;;;;;;35.12;8.75;102480.56;5051216;28;20035;-55
2021/10/06 07:36:41;;;;;;;11.52;5.38;;;;;;;34.41;9.05;102468.50;5050455;28;20119;-56
2021/10/06 07:39:08;;;;;;;10.25;4.95;;;;;;;32.52;10.72;102485.06;5050241;28;20492;-57
2021/10/06 07:41:34;;;;;;;8.55;4.82;;;;;;;29.69;12.52;102483.94;5050326;28;20626;-55
2021/10/06 07:44:00;;;;;;;10.65;5.13;;;;;;;27.25;14.54;102479.66;5050860;28;20112;-56
2021/10/06 07:46:26;;;;;;;12.45;5.93;;;;;;;25.01;16.83;102486.47;5032550;28;20116;-57
2021/10/06 07:48:53;;;;;;;9.40;5.70;;;;;;;23.23;18.44;102497.00;5048293;28;20849;-60
2021/10/06 07:51:20;;;;;;;11.65;5.70;;;;;;;21.72;20.51;102501.22;5046567;28;20082;-61
2021/10/06 07:53:47;;;;;;;11.48;5.70;;;;;;;20.50;21.81;102493.97;5035875;28;20107;-58
2021/10/06 07:56:12;;;;;;;16.13;6.05;;;;;;;19.32;23.26;102492.16;5042435;28;20037;-60
2021/10/06 07:58:38;;;;;;;12.55;6.85;;;;;;;18.57;24.68;102488.56;5040613;28;20048;-61
2021/10/06 08:01:03;;;;;;;10.25;6.53;;;;;;;17.95;25.55;102492.88;5050471;28;20108;-58
2021/10/06 08:03:29;;;;;;;9.75;6.13;;;;;;;17.42;26.15;102492.91;5063045;28;20025;-58
2021/10/06 08:05:55;;;;;;;15.30;6.22;;;;;;;16.98;27.17;102497.53;5043138;28;20033;-58
2021/10/06 08:08:20;;;;;;;10.98;6.22;;;;;;;16.58;27.51;102491.03;5036739;28;20049;-60
2021/10/06 08:10:46;;;;;;;13.85;5.90;;;;;;;16.26;28.47;102488.50;5042014;28;20067;-61
2021/10/06 08:13:12;;;;;;;11.77;6.20;;;;;;;16.04;29.76;102483.59;5046041;28;20048;-62
2021/10/06 08:15:37;;;;;;;10.32;6.43;;;;;;;16.00;30.16;102503.66;5048736;28;20025;-62
2021/10/06 08:18:04;;;;;;;12.43;5.45;;;;;;;15.79;29.82;102491.34;5038208;28;20029;-62
2021/10/06 08:20:33;;;;;;;12.75;6.28;;;;;;;15.73;30.02;102496.22;5039982;28;20491;-61
2021/10/06 08:23:03;;;;;;;13.43;7.28;;;;;;;15.79;29.69;102493.16;5045201;28;20119;-62
2021/10/06 08:25:29;;;;;;;9.57;5.85;;;;;;;15.74;29.92;102497.97;5055057;28;20056;-60
2021/10/06 08:27:55;;;;;;;17.70;6.30;;;;;;;15.55;30.55;102499.06;5069788;28;20127;-61
2021/10/06 08:30:22;;;;;;;11.93;6.45;;;;;;;15.38;30.64;102485.66;5069946;28;20071;-62
2021/10/06 08:32:48;;;;;;;13.65;6.45;;;;;;;15.36;30.86;102493.88;5069706;28;20029;-60
2021/10/06 08:35:13;;;;;;;9.57;5.63;;;;;;;15.34;30.52;102502.06;5067549;28;20032;-60
2021/10/06 08:37:39;;;;;;;11.65;5.90;;;;;;;15.31;31.04;102507.63;5068835;28;20063;-61
2021/10/06 08:40:05;;;;;;;11.48;5.75;;;;;;;15.23;31.57;102499.13;5069462;28;20016;-60
2021/10/06 08:42:32;;;;;;;12.07;5.50;;;;;;;15.06;31.51;102476.66;5070451;28;20035;-63
2021/10/06 08:45:05;;;;;;;13.68;5.63;;;;;;;15.25;31.08;102491.81;5070201;28;20353;-61
2021/10/06 08:47:32;;;;;;;14.75;5.63;;;;;;;15.21;31.39;102483.00;5069535;28;20524;-62
2021/10/06 08:49:58;;;;;;;11.45;5.97;;;;;;;15.21;31.33;102487.53;5069904;28;20036;-59
2021/10/06 08:52:23;;;;;;;11.13;6.25;;;;;;;15.09;32.12;102490.94;5069855;28;20028;-62
2021/10/06 08:54:49;;;;;;;13.63;5.32;;;;;;;14.98;31.62;102484.34;5070534;28;20104;-61
2021/10/06 08:57:17;;;;;;;16.00;6.03;;;;;;;14.76;31.75;102490.06;5068102;28;20119;-61
2021/10/06 08:59:43;;;;;;;10.02;5.93;;;;;;;14.46;32.97;102493.47;5067201;28;20032;-66
2021/10/06 09:02:14;;;;;;;14.90;5.38;;;;;;;14.19;33.00;102494.84;5062055;28;20089;-64
2021/10/06 09:04:41;;;;;;;13.80;6.28;;;;;;;14.12;33.32;102489.91;5065741;28;20029;-62
2021/10/06 09:07:08;;;;;;;11.88;5.63;;;;;;;14.09;33.71;102484.66;5054795;28;20040;-62
2021/10/06 09:09:36;;;;;;;14.68;5.88;;;;;;;14.07;33.64;102461.34;5048519;28;20041;-67
2021/10/06 09:12:08;;;;;;;11.27;5.28;;;;;;;14.34;32.88;102468.91;5053586;28;20048;-64
2021/10/06 09:14:40;;;;;;;13.68;6.10;;;;;;;14.44;32.65;102471.97;5026632;28;20449;-65
2021/10/06 09:17:10;;;;;;;9.80;5.47;;;;;;;14.09;33.49;102453.22;5052798;28;20112;-64
2021/10/06 09:19:57;;;;;;;16.55;6.18;;;;;;;14.08;33.71;102483.78;5053321;28;20048;-61
2021/10/06 09:22:30;;;;;;;14.40;6.25;;;;;;;14.10;33.40;102468.41;5046666;28;20032;-68
2021/10/06 09:25:07;;;;;;;11.55;5.47;;;;;;;14.13;33.21;102464.69;5025036;28;20029;-69
2021/10/06 09:27:39;;;;;;;9.70;5.00;;;;;;;13.98;33.59;102467.25;5040539;28;20082;-65
2021/10/06 09:30:12;;;;;;;10.10;4.78;;;;;;;13.98;33.70;102479.81;5045366;28;20099;-63
2021/10/06 09:32:43;;;;;;;8.25;5.00;;;;;;;13.80;33.58;102433.19;5045274;28;20022;-64
2021/10/06 09:35:12;;;;;;;9.02;5.22;;;;;;;14.02;33.95;102471.50;5050168;28;20110;-67
2021/10/06 09:37:43;;;;;;;15.38;5.22;;;;;;;14.03;33.59;102470.56;5041790;28;20021;-66
2021/10/06 09:40:10;;;;;;;17.98;5.88;;;;;;;13.98;33.64;102455.59;5043174;28;20029;-67
2021/10/06 09:42:42;;;;;;;8.88;5.05;;;;;;;13.94;33.50;102425.28;5020551;28;20033;-68
2021/10/06 09:45:08;;;;;;;11.80;5.30;;;;;;;14.11;33.54;102453.13;5067501;28;20077;-64
2021/10/06 09:47:35;;;;;;;7.03;5.20;;;;;;;14.12;33.51;102462.97;5050884;28;20310;-63
2021/10/06 09:50:02;;;;;;;10.52;5.57;;;;;;;14.04;33.89;102458.84;5045839;28;20041;-62
2021/10/06 09:52:32;;;;;;;9.57;5.10;;;;;;;14.00;33.53;102464.50;5048692;28;20025;-64
2021/10/06 09:54:59;;;;;;;9.57;5.47;;;;;;;14.02;33.64;102454.50;5044834;28;20033;-65
2021/10/06 09:57:28;;;;;;;10.95;5.38;;;;;;;13.85;33.98;102423.94;5039174;28;20060;-62
2021/10/06 09:59:59;;;;;;;9.40;5.55;;;;;;;14.12;33.96;102462.97;5039347;28;20049;-61
2021/10/06 10:02:26;;;;;;;8.65;5.60;;;;;;;14.11;34.13;102448.59;5044444;28;20036;-59
2021/10/06 10:04:54;;;;;;;12.63;5.15;;;;;;;13.97;34.04;102413.44;5042207;28;20381;-63
2021/10/06 10:07:20;;;;;;;14.93;5.28;;;;;;;14.18;33.86;102449.16;5044272;28;20036;-62
2021/10/06 10:09:46;;;;;;;11.98;6.07;;;;;;;14.18;34.27;102447.31;5040615;28;20041;-63
2021/10/06 10:12:12;;;;;;;9.70;5.95;;;;;;;14.08;34.35;102440.69;5037756;28;20033;-65
2021/10/06 10:14:40;;;;;;;14.43;5.95;;;;;;;14.04;33.84;102422.97;5021954;28;20128;-62
2021/10/06 10:17:05;;;;;;;6.60;5.10;;;;;;;14.03;34.14;102437.38;5044633;28;20032;-62
2021/10/06 10:19:31;;;;;;;8.00;5.32;;;;;;;13.97;34.25;102427.81;5066002;28;20041;-64
2021/10/06 10:22:01;;;;;;;11.07;5.65;;;;;;;13.77;34.05;102399.25;5060449;28;20032;-65
2021/10/06 10:24:26;;;;;;;14.02;6.22;;;;;;;13.92;34.68;102425.34;5058932;28;20025;-63
2021/10/06 10:26:56;;;;;;;7.70;5.32;;;;;;;13.97;34.48;102433.19;5043913;28;20032;-64
2021/10/06 10:30:03;;;;;;;10.73;5.40;;;;;;;14.13;33.67;102444.00;5048084;28;20111;-62
2021/10/06 10:32:41;;;;;;;9.45;5.00;;;;;;;14.02;33.98;102438.34;5043219;28;20040;-63
2021/10/06 10:35:12;;;;;;;8.90;5.05;;;;;;;13.81;34.18;102397.25;5044944;28;20033;-65
2021/10/06 10:37:53;;;;;;;9.90;4.75;;;;;;;14.09;33.85;102428.97;5048252;28;20457;-65
2021/10/06 10:40:33;;;;;;;9.07;4.63;;;;;;;14.15;33.49;102433.16;5041182;28;20451;-64
2021/10/06 10:43:07;;;;;;;10.05;4.85;;;;;;;14.12;33.45;102427.94;5066141;28;20384;-64
2021/10/06 10:45:34;;;;;;;9.20;4.97;;;;;;;14.01;33.88;102428.50;5055590;28;20128;-62
2021/10/06 10:47:59;;;;;;;8.93;4.65;;;;;;;13.95;33.80;102421.63;5054154;28;20096;-61
2021/10/06 10:50:42;;;;;;;13.25;5.45;;;;;;;14.02;33.65;102411.41;5045530;28;20137;-61
2021/10/06 10:53:13;;;;;;;12.18;4.95;;;;;;;13.96;33.88;102420.69;5047638;28;20450;-64
2021/10/06 10:55:58;;;;;;;7.30;4.28;;;;;;;14.04;33.71;102409.50;5040993;28;20095;-63
2021/10/06 10:58:34;;;;;;;7.72;4.85;;;;;;;14.09;33.37;102420.00;5044802;28;20480;-62
2021/10/06 11:01:05;;;;;;;5.38;4.40;;;;;;;13.95;33.80;102415.34;5050412;28;20036;-61
2021/10/06 11:03:31;;;;;;;12.60;4.70;;;;;;;13.73;34.43;102403.91;5044798;28;20025;-65
2021/10/06 11:05:57;;;;;;;8.98;4.35;;;;;;;13.77;34.07;102405.50;5040242;28;20029;-61
2021/10/06 11:08:27;;;;;;;7.25;4.82;;;;;;;13.77;34.41;102401.94;5037127;28;20134;-62
2021/10/06 11:11:19;;;;;;;7.47;4.97;;;;;;;13.85;33.90;102420.34;5039893;28;20132;-61
2021/10/06 11:13:46;;;;;;;6.88;4.43;;;;;;;13.56;34.42;102385.97;5055017;28;20124;-61
2021/10/06 11:16:12;;;;;;;5.22;4.30;;;;;;;13.61;34.83;102410.81;5041865;28;20043;-65
2021/10/06 11:18:57;;;;;;;7.18;4.82;;;;;;;13.77;34.08;102407.31;5043416;28;20357;-69
2021/10/06 11:21:38;;;;;;;8.68;4.22;;;;;;;13.79;34.15;102400.03;5043125;28;20032;-61
2021/10/06 11:24:19;;;;;;;7.18;4.45;;;;;;;13.76;34.44;102405.59;5044297;28;20036;-64
2021/10/06 11:26:45;;;;;;;8.20;4.00;;;;;;;13.65;34.70;102406.16;5056379;28;20032;-62